sensor_id;sensor_type;location;lat;lon;timestamp;P1;durP1;ratioP1;P2;durP2;ratioP2
54502;SDS011;40411;50.090;21.954;2022-08-04T00:01:15;23.63;;;12.48;;
54502;SDS011;40411;50.090;21.954;2022-08-04T00:04:00;18.75;;;12.13;;
54502;SDS011;40411;50.090;21.954;2022-08-04T00:06:37;16.73;;;11.68;;
54502;SDS011;40411;50.090;21.954;2022-08-04T00:09:29;17.75;;;12.40;;
54502;SDS011;40411;50.090;21.954;2022-08-04T00:12:03;18.77;;;12.50;;
54502;SDS011;40411;50.090;21.954;2022-08-04T00:14:33;21.27;;;12.68;;
54502;SDS011;40411;50.090;21.954;2022-08-04T00:17:05;20.92;;;13.10;;
54502;SDS011;40411;50.090;21.954;2022-08-04T00:19:32;24.15;;;14.07;;
54502;SDS011;40411;50.090;21.954;2022-08-04T00:22:05;21.27;;;11.90;;
54502;SDS011;40411;50.090;21.954;2022-08-04T00:24:35;17.52;;;12.18;;
54502;SDS011;40411;50.090;21.954;2022-08-04T00:27:02;20.70;;;13.55;;
54502;SDS011;40411;50.090;21.954;2022-08-04T00:29:28;19.92;;;12.50;;
54502;SDS011;40411;50.090;21.954;2022-08-04T00:31:55;23.88;;;14.18;;
54502;SDS011;40411;50.090;21.954;2022-08-04T00:34:23;21.20;;;14.20;;
54502;SDS011;40411;50.090;21.954;2022-08-04T00:36:50;24.50;;;14.07;;
54502;SDS011;40411;50.090;21.954;2022-08-04T00:39:18;20.73;;;13.35;;
54502;SDS011;40411;50.090;21.954;2022-08-04T00:41:50;21.10;;;12.63;;
54502;SDS011;40411;50.090;21.954;2022-08-04T00:47:10;20.50;;;12.48;;
54502;SDS011;40411;50.090;21.954;2022-08-04T00:52:32;20.15;;;12.98;;
54502;SDS011;40411;50.090;21.954;2022-08-04T00:57:39;23.90;;;14.07;;
54502;SDS011;40411;50.090;21.954;2022-08-04T01:00:24;17.95;;;12.95;;
54502;SDS011;40411;50.090;21.954;2022-08-04T01:06:23;21.92;;;14.02;;
54502;SDS011;40411;50.090;21.954;2022-08-04T01:17:16;22.67;;;13.43;;
54502;SDS011;40411;50.090;21.954;2022-08-04T01:30:17;17.00;;;8.55;;
54502;SDS011;40411;50.090;21.954;2022-08-04T01:32:52;18.95;;;9.75;;
54502;SDS011;40411;50.090;21.954;2022-08-04T01:41:07;17.95;;;9.25;;
54502;SDS011;40411;50.090;21.954;2022-08-04T01:43:40;21.40;;;9.77;;
54502;SDS011;40411;50.090;21.954;2022-08-04T01:46:12;18.98;;;11.45;;
54502;SDS011;40411;50.090;21.954;2022-08-04T01:48:41;22.20;;;10.13;;
54502;SDS011;40411;50.090;21.954;2022-08-04T01:51:10;15.73;;;10.30;;
54502;SDS011;40411;50.090;21.954;2022-08-04T01:53:38;17.15;;;10.43;;
54502;SDS011;40411;50.090;21.954;2022-08-04T01:56:06;19.52;;;11.32;;
54502;SDS011;40411;50.090;21.954;2022-08-04T01:58:35;17.38;;;10.95;;
54502;SDS011;40411;50.090;21.954;2022-08-04T02:01:03;17.20;;;11.10;;
54502;SDS011;40411;50.090;21.954;2022-08-04T02:03:34;16.10;;;10.05;;
54502;SDS011;40411;50.090;21.954;2022-08-04T02:08:57;22.17;;;11.05;;
54502;SDS011;40411;50.090;21.954;2022-08-04T02:11:28;17.67;;;10.65;;
54502;SDS011;40411;50.090;21.954;2022-08-04T02:17:12;16.75;;;8.80;;
54502;SDS011;40411;50.090;21.954;2022-08-04T02:22:32;20.67;;;11.35;;
54502;SDS011;40411;50.090;21.954;2022-08-04T02:25:04;19.00;;;10.80;;
54502;SDS011;40411;50.090;21.954;2022-08-04T02:27:39;19.05;;;10.63;;
54502;SDS011;40411;50.090;21.954;2022-08-04T02:30:27;19.23;;;9.32;;
54502;SDS011;40411;50.090;21.954;2022-08-04T02:33:00;16.58;;;10.70;;
54502;SDS011;40411;50.090;21.954;2022-08-04T02:35:28;19.38;;;10.35;;
54502;SDS011;40411;50.090;21.954;2022-08-04T02:41:12;15.55;;;10.23;;
54502;SDS011;40411;50.090;21.954;2022-08-04T02:43:43;19.33;;;10.73;;
54502;SDS011;40411;50.090;21.954;2022-08-04T02:46:14;14.55;;;10.00;;
54502;SDS011;40411;50.090;21.954;2022-08-04T02:48:42;16.52;;;10.93;;
54502;SDS011;40411;50.090;21.954;2022-08-04T02:51:12;19.75;;;11.55;;
54502;SDS011;40411;50.090;21.954;2022-08-04T02:53:40;15.18;;;10.15;;
54502;SDS011;40411;50.090;21.954;2022-08-04T02:56:06;17.70;;;11.65;;
54502;SDS011;40411;50.090;21.954;2022-08-04T02:58:34;16.30;;;10.50;;
54502;SDS011;40411;50.090;21.954;2022-08-04T03:01:02;18.60;;;10.27;;
54502;SDS011;40411;50.090;21.954;2022-08-04T03:03:37;21.77;;;10.20;;
54502;SDS011;40411;50.090;21.954;2022-08-04T03:11:15;21.98;;;12.38;;
54502;SDS011;40411;50.090;21.954;2022-08-04T03:30:19;23.85;;;14.13;;
54502;SDS011;40411;50.090;21.954;2022-08-04T03:41:26;21.60;;;13.15;;
54502;SDS011;40411;50.090;21.954;2022-08-04T03:44:20;24.42;;;13.32;;
54502;SDS011;40411;50.090;21.954;2022-08-04T04:04:14;17.63;;;11.70;;
54502;SDS011;40411;50.090;21.954;2022-08-04T04:11:48;24.13;;;12.57;;
54502;SDS011;40411;50.090;21.954;2022-08-04T04:33:57;22.30;;;14.75;;
54502;SDS011;40411;50.090;21.954;2022-08-04T04:42:06;24.33;;;15.48;;
54502;SDS011;40411;50.090;21.954;2022-08-04T04:47:22;25.67;;;14.13;;
54502;SDS011;40411;50.090;21.954;2022-08-04T04:49:58;20.63;;;12.55;;
54502;SDS011;40411;50.090;21.954;2022-08-04T04:55:04;20.60;;;12.85;;
54502;SDS011;40411;50.090;21.954;2022-08-04T04:57:38;25.75;;;12.88;;
54502;SDS011;40411;50.090;21.954;2022-08-04T05:00:09;20.50;;;13.25;;
54502;SDS011;40411;50.090;21.954;2022-08-04T05:13:49;19.70;;;11.70;;
54502;SDS011;40411;50.090;21.954;2022-08-04T05:22:07;14.48;;;9.88;;
54502;SDS011;40411;50.090;21.954;2022-08-04T05:24:37;17.00;;;10.70;;
54502;SDS011;40411;50.090;21.954;2022-08-04T05:27:17;21.67;;;10.98;;
54502;SDS011;40411;50.090;21.954;2022-08-04T05:29:52;22.48;;;11.43;;
54502;SDS011;40411;50.090;21.954;2022-08-04T05:32:23;17.05;;;11.00;;
54502;SDS011;40411;50.090;21.954;2022-08-04T05:34:54;19.35;;;9.40;;
54502;SDS011;40411;50.090;21.954;2022-08-04T05:37:24;14.35;;;9.65;;
54502;SDS011;40411;50.090;21.954;2022-08-04T05:39:54;17.33;;;9.63;;
54502;SDS011;40411;50.090;21.954;2022-08-04T05:42:22;16.38;;;9.70;;
54502;SDS011;40411;50.090;21.954;2022-08-04T05:44:50;15.30;;;8.32;;
54502;SDS011;40411;50.090;21.954;2022-08-04T05:47:17;14.95;;;8.10;;
54502;SDS011;40411;50.090;21.954;2022-08-04T05:49:45;14.50;;;8.55;;
54502;SDS011;40411;50.090;21.954;2022-08-04T05:52:12;14.68;;;8.18;;
54502;SDS011;40411;50.090;21.954;2022-08-04T05:54:39;17.80;;;8.25;;
54502;SDS011;40411;50.090;21.954;2022-08-04T05:57:06;17.17;;;7.82;;
54502;SDS011;40411;50.090;21.954;2022-08-04T05:59:35;14.02;;;7.32;;
54502;SDS011;40411;50.090;21.954;2022-08-04T06:02:03;15.00;;;8.02;;
54502;SDS011;40411;50.090;21.954;2022-08-04T06:04:32;9.50;;;6.22;;
54502;SDS011;40411;50.090;21.954;2022-08-04T06:07:02;15.57;;;7.20;;
54502;SDS011;40411;50.090;21.954;2022-08-04T06:09:29;11.30;;;7.00;;
54502;SDS011;40411;50.090;21.954;2022-08-04T06:11:58;18.48;;;6.15;;
54502;SDS011;40411;50.090;21.954;2022-08-04T06:14:28;16.27;;;6.35;;
54502;SDS011;40411;50.090;21.954;2022-08-04T06:16:58;9.10;;;5.32;;
54502;SDS011;40411;50.090;21.954;2022-08-04T06:19:26;9.98;;;4.38;;
54502;SDS011;40411;50.090;21.954;2022-08-04T06:21:54;8.98;;;5.25;;
54502;SDS011;40411;50.090;21.954;2022-08-04T06:24:23;12.27;;;5.68;;
54502;SDS011;40411;50.090;21.954;2022-08-04T06:26:53;12.88;;;6.57;;
54502;SDS011;40411;50.090;21.954;2022-08-04T06:29:21;13.52;;;5.80;;
54502;SDS011;40411;50.090;21.954;2022-08-04T06:32:00;9.23;;;5.40;;
54502;SDS011;40411;50.090;21.954;2022-08-04T06:34:38;10.45;;;5.03;;
54502;SDS011;40411;50.090;21.954;2022-08-04T06:37:06;10.75;;;4.70;;
54502;SDS011;40411;50.090;21.954;2022-08-04T06:39:34;7.47;;;4.95;;
54502;SDS011;40411;50.090;21.954;2022-08-04T06:42:01;10.10;;;4.68;;
54502;SDS011;40411;50.090;21.954;2022-08-04T06:44:28;9.43;;;4.72;;
54502;SDS011;40411;50.090;21.954;2022-08-04T06:46:54;9.15;;;4.75;;
54502;SDS011;40411;50.090;21.954;2022-08-04T06:49:22;12.10;;;4.10;;
54502;SDS011;40411;50.090;21.954;2022-08-04T06:51:49;13.93;;;4.30;;
54502;SDS011;40411;50.090;21.954;2022-08-04T06:54:16;6.75;;;3.53;;
54502;SDS011;40411;50.090;21.954;2022-08-04T06:56:43;6.60;;;3.30;;
54502;SDS011;40411;50.090;21.954;2022-08-04T06:59:10;8.70;;;3.70;;
54502;SDS011;40411;50.090;21.954;2022-08-04T07:01:36;7.93;;;3.20;;
54502;SDS011;40411;50.090;21.954;2022-08-04T07:04:04;12.48;;;3.67;;
54502;SDS011;40411;50.090;21.954;2022-08-04T07:06:31;10.23;;;3.50;;
54502;SDS011;40411;50.090;21.954;2022-08-04T07:08:57;11.77;;;3.28;;
54502;SDS011;40411;50.090;21.954;2022-08-04T07:11:24;7.55;;;3.13;;
54502;SDS011;40411;50.090;21.954;2022-08-04T07:13:50;5.55;;;2.53;;
54502;SDS011;40411;50.090;21.954;2022-08-04T07:16:17;6.85;;;2.92;;
54502;SDS011;40411;50.090;21.954;2022-08-04T07:18:45;18.88;;;3.65;;
54502;SDS011;40411;50.090;21.954;2022-08-04T07:21:17;7.35;;;2.85;;
54502;SDS011;40411;50.090;21.954;2022-08-04T07:23:48;6.50;;;2.17;;
54502;SDS011;40411;50.090;21.954;2022-08-04T07:26:17;10.25;;;2.63;;
54502;SDS011;40411;50.090;21.954;2022-08-04T07:28:43;10.98;;;2.42;;
54502;SDS011;40411;50.090;21.954;2022-08-04T07:31:12;7.32;;;2.65;;
54502;SDS011;40411;50.090;21.954;2022-08-04T07:33:41;4.82;;;2.20;;
54502;SDS011;40411;50.090;21.954;2022-08-04T07:36:08;5.90;;;2.67;;
54502;SDS011;40411;50.090;21.954;2022-08-04T07:38:34;13.88;;;3.72;;
54502;SDS011;40411;50.090;21.954;2022-08-04T07:41:00;10.68;;;2.13;;
54502;SDS011;40411;50.090;21.954;2022-08-04T07:43:28;9.80;;;3.20;;
54502;SDS011;40411;50.090;21.954;2022-08-04T07:45:56;4.18;;;1.95;;
54502;SDS011;40411;50.090;21.954;2022-08-04T07:48:22;4.53;;;1.70;;
54502;SDS011;40411;50.090;21.954;2022-08-04T07:50:49;4.63;;;1.83;;
54502;SDS011;40411;50.090;21.954;2022-08-04T07:53:16;5.88;;;2.10;;
54502;SDS011;40411;50.090;21.954;2022-08-04T07:55:45;9.85;;;2.33;;
54502;SDS011;40411;50.090;21.954;2022-08-04T07:58:12;13.98;;;4.07;;
54502;SDS011;40411;50.090;21.954;2022-08-04T08:00:38;5.00;;;1.60;;
54502;SDS011;40411;50.090;21.954;2022-08-04T08:03:04;5.78;;;2.05;;
54502;SDS011;40411;50.090;21.954;2022-08-04T08:05:32;6.93;;;2.00;;
54502;SDS011;40411;50.090;21.954;2022-08-04T08:07:58;4.50;;;1.70;;
54502;SDS011;40411;50.090;21.954;2022-08-04T08:10:24;5.95;;;1.70;;
54502;SDS011;40411;50.090;21.954;2022-08-04T08:12:50;5.40;;;1.60;;
54502;SDS011;40411;50.090;21.954;2022-08-04T08:15:17;10.55;;;5.32;;
54502;SDS011;40411;50.090;21.954;2022-08-04T08:17:44;7.72;;;2.00;;
54502;SDS011;40411;50.090;21.954;2022-08-04T08:20:10;4.53;;;1.92;;
54502;SDS011;40411;50.090;21.954;2022-08-04T08:22:36;5.65;;;1.80;;
54502;SDS011;40411;50.090;21.954;2022-08-04T08:25:05;5.75;;;1.60;;
54502;SDS011;40411;50.090;21.954;2022-08-04T08:27:32;5.43;;;1.63;;
54502;SDS011;40411;50.090;21.954;2022-08-04T08:29:58;3.83;;;1.98;;
54502;SDS011;40411;50.090;21.954;2022-08-04T08:32:24;3.97;;;1.95;;
54502;SDS011;40411;50.090;21.954;2022-08-04T08:34:51;4.22;;;1.67;;
54502;SDS011;40411;50.090;21.954;2022-08-04T08:54:26;7.93;;;1.50;;
54502;SDS011;40411;50.090;21.954;2022-08-04T09:10:49;5.93;;;1.50;;
54502;SDS011;40411;50.090;21.954;2022-08-04T09:13:25;3.15;;;1.33;;
54502;SDS011;40411;50.090;21.954;2022-08-04T09:16:01;3.72;;;1.58;;
54502;SDS011;40411;50.090;21.954;2022-08-04T09:26:59;3.05;;;1.40;;
54502;SDS011;40411;50.090;21.954;2022-08-04T09:31:57;7.90;;;1.45;;
54502;SDS011;40411;50.090;21.954;2022-08-04T09:40:20;4.10;;;1.55;;
54502;SDS011;40411;50.090;21.954;2022-08-04T09:48:14;6.22;;;1.67;;
54502;SDS011;40411;50.090;21.954;2022-08-04T09:50:52;8.25;;;1.80;;
54502;SDS011;40411;50.090;21.954;2022-08-04T09:53:29;4.00;;;1.50;;
54502;SDS011;40411;50.090;21.954;2022-08-04T09:56:25;3.72;;;1.48;;
54502;SDS011;40411;50.090;21.954;2022-08-04T10:01:58;3.92;;;1.50;;
54502;SDS011;40411;50.090;21.954;2022-08-04T10:04:28;8.30;;;1.55;;
54502;SDS011;40411;50.090;21.954;2022-08-04T10:09:42;4.50;;;1.90;;
54502;SDS011;40411;50.090;21.954;2022-08-04T10:15:02;5.13;;;1.50;;
54502;SDS011;40411;50.090;21.954;2022-08-04T10:25:51;5.13;;;1.35;;
54502;SDS011;40411;50.090;21.954;2022-08-04T10:28:27;4.72;;;1.35;;
54502;SDS011;40411;50.090;21.954;2022-08-04T10:30:57;7.25;;;1.40;;
54502;SDS011;40411;50.090;21.954;2022-08-04T10:33:31;9.20;;;4.00;;
54502;SDS011;40411;50.090;21.954;2022-08-04T10:36:10;4.40;;;1.63;;
54502;SDS011;40411;50.090;21.954;2022-08-04T10:41:59;2.88;;;1.15;;
54502;SDS011;40411;50.090;21.954;2022-08-04T10:47:18;5.90;;;1.25;;
54502;SDS011;40411;50.090;21.954;2022-08-04T10:49:55;9.38;;;2.17;;
54502;SDS011;40411;50.090;21.954;2022-08-04T10:52:34;3.67;;;1.55;;
54502;SDS011;40411;50.090;21.954;2022-08-04T10:55:20;6.35;;;1.40;;
54502;SDS011;40411;50.090;21.954;2022-08-04T10:57:58;4.78;;;1.50;;
54502;SDS011;40411;50.090;21.954;2022-08-04T11:00:27;4.40;;;1.33;;
54502;SDS011;40411;50.090;21.954;2022-08-04T11:08:14;3.03;;;1.40;;
54502;SDS011;40411;50.090;21.954;2022-08-04T11:10:45;2.67;;;1.20;;
54502;SDS011;40411;50.090;21.954;2022-08-04T11:13:16;5.38;;;1.30;;
54502;SDS011;40411;50.090;21.954;2022-08-04T11:15:45;6.55;;;1.42;;
54502;SDS011;40411;50.090;21.954;2022-08-04T11:18:24;6.55;;;1.60;;
54502;SDS011;40411;50.090;21.954;2022-08-04T11:21:03;3.75;;;1.38;;
54502;SDS011;40411;50.090;21.954;2022-08-04T11:23:37;7.47;;;1.35;;
54502;SDS011;40411;50.090;21.954;2022-08-04T11:26:14;2.88;;;1.20;;
54502;SDS011;40411;50.090;21.954;2022-08-04T11:28:57;2.65;;;1.10;;
54502;SDS011;40411;50.090;21.954;2022-08-04T11:31:39;3.80;;;1.10;;
54502;SDS011;40411;50.090;21.954;2022-08-04T11:39:38;4.07;;;1.30;;
54502;SDS011;40411;50.090;21.954;2022-08-04T11:42:19;2.80;;;1.20;;
54502;SDS011;40411;50.090;21.954;2022-08-04T11:45:06;6.75;;;1.33;;
54502;SDS011;40411;50.090;21.954;2022-08-04T11:50:42;8.82;;;1.20;;
54502;SDS011;40411;50.090;21.954;2022-08-04T11:53:12;3.67;;;1.17;;
54502;SDS011;40411;50.090;21.954;2022-08-04T11:55:49;2.95;;;1.10;;
54502;SDS011;40411;50.090;21.954;2022-08-04T11:58:21;5.22;;;1.17;;
54502;SDS011;40411;50.090;21.954;2022-08-04T12:01:11;2.97;;;1.17;;
54502;SDS011;40411;50.090;21.954;2022-08-04T12:09:35;3.80;;;1.15;;
54502;SDS011;40411;50.090;21.954;2022-08-04T12:14:54;2.57;;;1.13;;
54502;SDS011;40411;50.090;21.954;2022-08-04T12:20:47;3.00;;;1.30;;
54502;SDS011;40411;50.090;21.954;2022-08-04T12:23:37;4.18;;;1.30;;
54502;SDS011;40411;50.090;21.954;2022-08-04T12:26:24;2.88;;;1.20;;
54502;SDS011;40411;50.090;21.954;2022-08-04T12:28:58;3.80;;;1.42;;
54502;SDS011;40411;50.090;21.954;2022-08-04T12:31:26;8.27;;;1.17;;
54502;SDS011;40411;50.090;21.954;2022-08-04T12:33:57;4.70;;;1.20;;
54502;SDS011;40411;50.090;21.954;2022-08-04T12:39:18;5.95;;;1.27;;
54502;SDS011;40411;50.090;21.954;2022-08-04T12:44:17;3.35;;;1.40;;
54502;SDS011;40411;50.090;21.954;2022-08-04T12:46:44;4.13;;;1.02;;
54502;SDS011;40411;50.090;21.954;2022-08-04T12:49:11;2.70;;;1.00;;
54502;SDS011;40411;50.090;21.954;2022-08-04T12:51:41;3.25;;;1.20;;
54502;SDS011;40411;50.090;21.954;2022-08-04T12:54:09;4.30;;;1.13;;
54502;SDS011;40411;50.090;21.954;2022-08-04T12:56:36;5.75;;;1.42;;
54502;SDS011;40411;50.090;21.954;2022-08-04T12:59:06;3.95;;;1.13;;
54502;SDS011;40411;50.090;21.954;2022-08-04T13:01:34;4.20;;;1.20;;
54502;SDS011;40411;50.090;21.954;2022-08-04T13:04:11;3.55;;;1.10;;
54502;SDS011;40411;50.090;21.954;2022-08-04T13:06:41;3.72;;;1.27;;
54502;SDS011;40411;50.090;21.954;2022-08-04T13:09:16;2.38;;;1.05;;
54502;SDS011;40411;50.090;21.954;2022-08-04T13:11:47;3.70;;;1.50;;
54502;SDS011;40411;50.090;21.954;2022-08-04T13:14:17;3.30;;;1.33;;
54502;SDS011;40411;50.090;21.954;2022-08-04T13:16:46;5.82;;;1.15;;
54502;SDS011;40411;50.090;21.954;2022-08-04T13:19:12;3.83;;;1.33;;
54502;SDS011;40411;50.090;21.954;2022-08-04T13:21:40;5.80;;;1.33;;
54502;SDS011;40411;50.090;21.954;2022-08-04T13:24:11;4.40;;;1.35;;
54502;SDS011;40411;50.090;21.954;2022-08-04T13:27:23;3.80;;;1.48;;
54502;SDS011;40411;50.090;21.954;2022-08-04T13:29:35;13.30;;;1.60;;
54502;SDS011;40411;50.090;21.954;2022-08-04T13:32:03;3.20;;;1.25;;
54502;SDS011;40411;50.090;21.954;2022-08-04T13:34:31;3.60;;;1.27;;
54502;SDS011;40411;50.090;21.954;2022-08-04T13:36:58;3.08;;;1.27;;
54502;SDS011;40411;50.090;21.954;2022-08-04T13:39:26;4.85;;;1.25;;
54502;SDS011;40411;50.090;21.954;2022-08-04T13:41:54;3.22;;;1.13;;
54502;SDS011;40411;50.090;21.954;2022-08-04T13:44:25;6.55;;;1.30;;
54502;SDS011;40411;50.090;21.954;2022-08-04T13:46:57;5.95;;;1.20;;
54502;SDS011;40411;50.090;21.954;2022-08-04T13:49:26;3.25;;;1.40;;
54502;SDS011;40411;50.090;21.954;2022-08-04T13:51:55;2.67;;;1.20;;
54502;SDS011;40411;50.090;21.954;2022-08-04T13:56:52;5.03;;;1.30;;
54502;SDS011;40411;50.090;21.954;2022-08-04T13:59:24;3.35;;;1.20;;
54502;SDS011;40411;50.090;21.954;2022-08-04T14:02:00;3.33;;;1.23;;
54502;SDS011;40411;50.090;21.954;2022-08-04T14:04:29;3.95;;;1.25;;
54502;SDS011;40411;50.090;21.954;2022-08-04T14:07:12;5.43;;;1.60;;
54502;SDS011;40411;50.090;21.954;2022-08-04T14:09:40;2.85;;;1.15;;
54502;SDS011;40411;50.090;21.954;2022-08-04T14:12:10;2.55;;;1.10;;
54502;SDS011;40411;50.090;21.954;2022-08-04T14:14:45;3.33;;;1.30;;
54502;SDS011;40411;50.090;21.954;2022-08-04T14:17:16;5.18;;;1.20;;
54502;SDS011;40411;50.090;21.954;2022-08-04T14:20:00;4.28;;;1.20;;
54502;SDS011;40411;50.090;21.954;2022-08-04T14:22:28;6.25;;;1.25;;
54502;SDS011;40411;50.090;21.954;2022-08-04T14:24:59;2.38;;;1.20;;
54502;SDS011;40411;50.090;21.954;2022-08-04T14:28:00;2.92;;;1.30;;
54502;SDS011;40411;50.090;21.954;2022-08-04T14:30:32;4.55;;;1.30;;
54502;SDS011;40411;50.090;21.954;2022-08-04T14:35:27;9.40;;;1.40;;
54502;SDS011;40411;50.090;21.954;2022-08-04T14:37:54;2.15;;;1.17;;
54502;SDS011;40411;50.090;21.954;2022-08-04T14:40:25;4.43;;;1.48;;
54502;SDS011;40411;50.090;21.954;2022-08-04T14:42:53;4.32;;;1.50;;
54502;SDS011;40411;50.090;21.954;2022-08-04T14:48:08;4.25;;;1.42;;
54502;SDS011;40411;50.090;21.954;2022-08-04T14:50:39;5.07;;;1.30;;
54502;SDS011;40411;50.090;21.954;2022-08-04T14:53:09;3.13;;;1.10;;
54502;SDS011;40411;50.090;21.954;2022-08-04T14:55:47;3.28;;;1.25;;
54502;SDS011;40411;50.090;21.954;2022-08-04T14:58:25;5.68;;;1.27;;
54502;SDS011;40411;50.090;21.954;2022-08-04T15:00:57;2.45;;;0.95;;
54502;SDS011;40411;50.090;21.954;2022-08-04T15:03:28;15.97;;;1.70;;
54502;SDS011;40411;50.090;21.954;2022-08-04T15:05:56;4.88;;;1.30;;
54502;SDS011;40411;50.090;21.954;2022-08-04T15:08:24;5.25;;;1.50;;
54502;SDS011;40411;50.090;21.954;2022-08-04T15:10:52;2.72;;;1.20;;
54502;SDS011;40411;50.090;21.954;2022-08-04T15:13:26;4.53;;;1.30;;
54502;SDS011;40411;50.090;21.954;2022-08-04T15:15:51;14.57;;;1.42;;
54502;SDS011;40411;50.090;21.954;2022-08-04T15:18:18;6.90;;;1.40;;
54502;SDS011;40411;50.090;21.954;2022-08-04T15:20:44;6.00;;;1.30;;
54502;SDS011;40411;50.090;21.954;2022-08-04T15:23:10;5.88;;;1.38;;
54502;SDS011;40411;50.090;21.954;2022-08-04T15:25:41;2.03;;;1.08;;
54502;SDS011;40411;50.090;21.954;2022-08-04T15:28:10;4.43;;;1.13;;
54502;SDS011;40411;50.090;21.954;2022-08-04T15:30:40;3.85;;;1.30;;
54502;SDS011;40411;50.090;21.954;2022-08-04T15:33:08;3.85;;;1.25;;
54502;SDS011;40411;50.090;21.954;2022-08-04T15:35:35;4.32;;;1.45;;
54502;SDS011;40411;50.090;21.954;2022-08-04T15:38:02;10.90;;;1.40;;
54502;SDS011;40411;50.090;21.954;2022-08-04T15:40:46;3.33;;;1.10;;
54502;SDS011;40411;50.090;21.954;2022-08-04T15:46:24;9.48;;;1.42;;
54502;SDS011;40411;50.090;21.954;2022-08-04T15:49:18;4.88;;;1.40;;
54502;SDS011;40411;50.090;21.954;2022-08-04T15:51:45;4.75;;;1.50;;
54502;SDS011;40411;50.090;21.954;2022-08-04T15:56:43;2.60;;;1.17;;
54502;SDS011;40411;50.090;21.954;2022-08-04T15:59:10;5.78;;;1.30;;
54502;SDS011;40411;50.090;21.954;2022-08-04T16:01:36;4.90;;;1.27;;
54502;SDS011;40411;50.090;21.954;2022-08-04T16:04:18;2.97;;;1.40;;
54502;SDS011;40411;50.090;21.954;2022-08-04T16:06:47;2.95;;;1.27;;
54502;SDS011;40411;50.090;21.954;2022-08-04T16:09:20;8.38;;;1.58;;
54502;SDS011;40411;50.090;21.954;2022-08-04T16:11:48;4.25;;;1.25;;
54502;SDS011;40411;50.090;21.954;2022-08-04T16:14:14;4.47;;;1.35;;
54502;SDS011;40411;50.090;21.954;2022-08-04T16:19:10;4.28;;;1.17;;
54502;SDS011;40411;50.090;21.954;2022-08-04T16:26:44;6.00;;;1.30;;
54502;SDS011;40411;50.090;21.954;2022-08-04T16:32:17;2.53;;;1.08;;
54502;SDS011;40411;50.090;21.954;2022-08-04T16:34:57;4.25;;;1.38;;
54502;SDS011;40411;50.090;21.954;2022-08-04T16:37:35;5.55;;;1.42;;
54502;SDS011;40411;50.090;21.954;2022-08-04T16:43:12;4.03;;;1.10;;
54502;SDS011;40411;50.090;21.954;2022-08-04T16:48:08;4.55;;;1.15;;
54502;SDS011;40411;50.090;21.954;2022-08-04T16:50:46;4.07;;;1.35;;
54502;SDS011;40411;50.090;21.954;2022-08-04T16:53:24;5.43;;;1.20;;
54502;SDS011;40411;50.090;21.954;2022-08-04T16:55:52;7.55;;;1.40;;
54502;SDS011;40411;50.090;21.954;2022-08-04T16:58:32;3.97;;;1.80;;
54502;SDS011;40411;50.090;21.954;2022-08-04T17:01:08;5.30;;;1.85;;
54502;SDS011;40411;50.090;21.954;2022-08-04T17:03:37;10.52;;;2.17;;
54502;SDS011;40411;50.090;21.954;2022-08-04T17:06:05;11.52;;;1.77;;
54502;SDS011;40411;50.090;21.954;2022-08-04T17:08:32;3.50;;;1.35;;
54502;SDS011;40411;50.090;21.954;2022-08-04T17:10:59;9.32;;;1.80;;
54502;SDS011;40411;50.090;21.954;2022-08-04T17:15:53;6.32;;;2.20;;
54502;SDS011;40411;50.090;21.954;2022-08-04T17:18:24;12.38;;;1.50;;
54502;SDS011;40411;50.090;21.954;2022-08-04T17:20:53;5.50;;;1.63;;
54502;SDS011;40411;50.090;21.954;2022-08-04T17:23:21;16.00;;;3.25;;
54502;SDS011;40411;50.090;21.954;2022-08-04T17:26:14;5.95;;;1.92;;
54502;SDS011;40411;50.090;21.954;2022-08-04T17:28:45;8.32;;;1.75;;
54502;SDS011;40411;50.090;21.954;2022-08-04T17:31:14;6.50;;;2.22;;
54502;SDS011;40411;50.090;21.954;2022-08-04T17:33:45;8.70;;;2.17;;
54502;SDS011;40411;50.090;21.954;2022-08-04T17:36:12;6.32;;;2.30;;
54502;SDS011;40411;50.090;21.954;2022-08-04T17:38:41;7.70;;;2.35;;
54502;SDS011;40411;50.090;21.954;2022-08-04T17:41:13;6.05;;;2.30;;
54502;SDS011;40411;50.090;21.954;2022-08-04T17:51:21;5.63;;;2.25;;
54502;SDS011;40411;50.090;21.954;2022-08-04T17:53:55;9.82;;;2.88;;
54502;SDS011;40411;50.090;21.954;2022-08-04T17:56:27;4.32;;;2.22;;
54502;SDS011;40411;50.090;21.954;2022-08-04T18:01:44;6.93;;;2.28;;
54502;SDS011;40411;50.090;21.954;2022-08-04T18:04:56;11.70;;;2.78;;
54502;SDS011;40411;50.090;21.954;2022-08-04T18:07:16;10.27;;;3.15;;
54502;SDS011;40411;50.090;21.954;2022-08-04T18:12:23;8.32;;;2.88;;
54502;SDS011;40411;50.090;21.954;2022-08-04T18:14:55;6.30;;;2.90;;
54502;SDS011;40411;50.090;21.954;2022-08-04T18:17:31;9.15;;;2.75;;
54502;SDS011;40411;50.090;21.954;2022-08-04T18:20:00;7.65;;;2.70;;
54502;SDS011;40411;50.090;21.954;2022-08-04T18:22:30;5.15;;;2.88;;
54502;SDS011;40411;50.090;21.954;2022-08-04T18:24:56;8.73;;;3.05;;
54502;SDS011;40411;50.090;21.954;2022-08-04T18:27:23;5.53;;;2.60;;
54502;SDS011;40411;50.090;21.954;2022-08-04T18:29:51;10.98;;;3.10;;
54502;SDS011;40411;50.090;21.954;2022-08-04T18:32:18;10.25;;;2.97;;
54502;SDS011;40411;50.090;21.954;2022-08-04T18:34:44;9.82;;;2.85;;
54502;SDS011;40411;50.090;21.954;2022-08-04T18:37:10;8.82;;;3.10;;
54502;SDS011;40411;50.090;21.954;2022-08-04T18:39:36;7.75;;;2.80;;
54502;SDS011;40411;50.090;21.954;2022-08-04T18:42:02;6.93;;;2.70;;
54502;SDS011;40411;50.090;21.954;2022-08-04T18:44:29;11.50;;;3.38;;
54502;SDS011;40411;50.090;21.954;2022-08-04T18:46:59;13.57;;;2.75;;
54502;SDS011;40411;50.090;21.954;2022-08-04T18:49:26;13.88;;;4.20;;
54502;SDS011;40411;50.090;21.954;2022-08-04T18:51:52;10.02;;;4.70;;
54502;SDS011;40411;50.090;21.954;2022-08-04T18:54:20;8.77;;;3.30;;
54502;SDS011;40411;50.090;21.954;2022-08-04T18:56:48;10.88;;;3.30;;
54502;SDS011;40411;50.090;21.954;2022-08-04T18:59:14;21.20;;;4.10;;
54502;SDS011;40411;50.090;21.954;2022-08-04T19:01:40;7.40;;;2.78;;
54502;SDS011;40411;50.090;21.954;2022-08-04T19:04:06;13.55;;;4.28;;
54502;SDS011;40411;50.090;21.954;2022-08-04T19:06:33;13.25;;;6.47;;
54502;SDS011;40411;50.090;21.954;2022-08-04T19:08:59;11.63;;;4.10;;
54502;SDS011;40411;50.090;21.954;2022-08-04T19:11:25;13.20;;;5.38;;
54502;SDS011;40411;50.090;21.954;2022-08-04T19:13:51;11.05;;;5.80;;
54502;SDS011;40411;50.090;21.954;2022-08-04T19:16:17;14.23;;;5.72;;
54502;SDS011;40411;50.090;21.954;2022-08-04T19:18:43;8.45;;;4.72;;
54502;SDS011;40411;50.090;21.954;2022-08-04T19:21:09;12.00;;;4.60;;
54502;SDS011;40411;50.090;21.954;2022-08-04T19:23:35;8.77;;;4.63;;
54502;SDS011;40411;50.090;21.954;2022-08-04T19:26:01;8.32;;;3.97;;
54502;SDS011;40411;50.090;21.954;2022-08-04T19:28:28;7.80;;;4.13;;
54502;SDS011;40411;50.090;21.954;2022-08-04T19:30:54;11.73;;;4.22;;
54502;SDS011;40411;50.090;21.954;2022-08-04T19:33:21;7.78;;;3.85;;
54502;SDS011;40411;50.090;21.954;2022-08-04T19:35:47;12.90;;;4.57;;
54502;SDS011;40411;50.090;21.954;2022-08-04T19:38:13;11.10;;;4.90;;
54502;SDS011;40411;50.090;21.954;2022-08-04T19:40:41;8.85;;;4.18;;
54502;SDS011;40411;50.090;21.954;2022-08-04T19:43:07;10.13;;;4.05;;
54502;SDS011;40411;50.090;21.954;2022-08-04T19:45:33;15.13;;;4.05;;
54502;SDS011;40411;50.090;21.954;2022-08-04T19:47:59;10.82;;;4.10;;